AirNav   Air Wisconsin Up To $57,000 Bonus
 
 1282 users online  

KNRQ Spencer Naval Outlying Field
Pace, Florida, USA

GOING TO PACE?


FAA INFORMATION EFFECTIVE 05 DECEMBER 2019

Location

FAA Identifier: NRQ
Lat/Long: 30-37-00.0000N 087-08-00.0000W
30-37.000000N 087-08.000000W
30.6166667,-87.1333333
(estimated)
Elevation: 151 ft. / 46 m (estimated)
Variation: 00W (1995)
From city: 2 miles NE of PACE, FL
Time zone: UTC -6 (UTC -5 during Daylight Saving Time)
Zip code: 32571

Airport Operations

Airport use: Private use. Permission required prior to landing
Activation date: 08/2000
Control tower: no
ARTCC: JACKSONVILLE CENTER
FSS: GAINESVILLE FLIGHT SERVICE STATION
Attendance: MON-FRI 1415-0015Z++, ALL SAT-SUN CLSD, ALL HOLS CLSD
Segmented circle: no

Airport Communications

CTAF: 358.8
WX ASOS at NDZ (8 nm NE): PHONE 850-623-7210
WX ASOS at NSE (8 nm NE): PHONE 850-623-7241
WX ASOS at PNS (9 nm S): PHONE 850-436-4799

Nearby radio navigation aids

VOR radial/distance  VOR name  Freq  Var
NUNr049/(13.6)SAUFLEY VOR108.8001E
CEWr239/26.6CRESTVIEW VORTAC115.9003E

 
NDB name  Hdg/Dist  Freq  Var  ID
PICKENS014/11.032602WPKZ .--. -.- --..

Airport Services

Runway Information

Runway 4L/22R

Dimensions: 1800 x 150 ft. / 549 x 46 m
Surface: asphalt
Weight bearing capacity: 
PCN 9 /F/B/W/U
RUNWAY 4L  RUNWAY 22R
Traffic pattern: leftleft

Runway 4R/22L

Dimensions: 1800 x 150 ft. / 549 x 46 m
Surface: asphalt
Weight bearing capacity: 
PCN 9 /F/B/W/U
RUNWAY 4R  RUNWAY 22L
Traffic pattern: leftleft

Runway 9L/27R

Dimensions: 1800 x 150 ft. / 549 x 46 m
Surface: asphalt
Weight bearing capacity: 
PCN 9 /F/B/W/U
RUNWAY 9L  RUNWAY 27R
Traffic pattern: leftleft

Runway 9R/27L

Dimensions: 1800 x 150 ft. / 549 x 46 m
Surface: asphalt
RUNWAY 9R  RUNWAY 27L
Traffic pattern: leftleft

Runway 13L/31R

Dimensions: 1800 x 150 ft. / 549 x 46 m
Surface: asphalt
Weight bearing capacity: 
PCN 9 /F/B/W/U
RUNWAY 13L  RUNWAY 31R
Traffic pattern: leftleft

Runway 13R/31L

Dimensions: 1800 x 150 ft. / 549 x 46 m
Surface: asphalt
Weight bearing capacity: 
PCN 9 /F/B/W/U
RUNWAY 13R  RUNWAY 31L
Traffic pattern: leftleft

Runway 18L/36R

Dimensions: 1800 x 150 ft. / 549 x 46 m
Surface: asphalt
Weight bearing capacity: 
PCN 9 /F/B/W/U
RUNWAY 18L  RUNWAY 36R
Traffic pattern: leftleft

Runway 18R/36L

Dimensions: 1800 x 150 ft. / 549 x 46 m
Surface: asphalt
Weight bearing capacity: 
PCN 9 /F/B/W/U
RUNWAY 18R  RUNWAY 36L
Traffic pattern: leftleft

Airport Ownership and Management from official FAA records

Ownership: U.S. Navy
Owner: US NAVY
OCEANOGRAPHIC OFC - CODE 3142
WASHINGTON, DC 20373
Manager: US NAVY
OPERATIONS DUTY OFFICER, NAVAL AIR STATION WHITING FIELD
MILTON, FL 32570
Phone DSN-868-7475
C850-623-7475.

Additional Remarks

TRAWING 5 ACFT ONLY. PPR REQUIRED FOR ALL OTR ACFT. CLSD FLD OPR PROHIBITED WITH THE EXCEPTION OF LAS.
FOR CD CTC PENSACOLA APCH AT 850-266-6884 OR 850-266-6885.

Instrument Procedures

There are no published instrument procedures at KNRQ.

Some nearby airports with instrument procedures:

2R4 - Peter Prince Field Airport (7 nm E)
KNDZ - Whiting Field Naval Air Station South (8 nm NE)
KNSE - Whiting Field Naval Air Station North (8 nm NE)
KPNS - Pensacola International Airport (9 nm S)
KNPA - Pensacola Naval Air Station/Forrest Sherman Field (18 nm SW)
 
Loc | Ops | Rwys | IFR | FBO | Links
Com | Nav | Svcs | Stats | Notes

Continental Motors
AirBoss

 
Area around KNRQ (Spencer Naval Outlying Field)
 
Road maps at: MapQuest Bing Google
 
Aerial photo
No photo
 
Sectional chart

 
Airport distance calculator
Flying to Spencer Naval Outlying Field? Find the distance to fly.

From to KNRQ

Sunrise and sunset
Times for 11-Dec-2019
 Local
(UTC-6)
 Zulu
(UTC)
Morning civil twilight06:1012:10
Sunrise06:3712:37
Sunset16:4722:47
Evening civil twilight17:1323:13

Current date and time
Zulu (UTC)  11-Dec-2019 17:42:56
Local (UTC-6)  11-Dec-2019 11:42:56
 
METAR
KNDZ 
8nm NE 
111656Z 02013KT 10SM BKN065 BKN120 08/03 A3042 RMK SLP288 T00780033
KPNS 
8nm S 
111653Z 02010G18KT 10SM BKN046 OVC060 08/04 A3041 RMK AO2 SLP302 T00830039
KNSE 
8nm NE 
111556Z 01013KT 10SM BKN060 OVC110 06/04 A3042 RMK AO2 RAE06 SLP290 P0000 T00610039 $
KNPA 
19nm SW 
111656Z 02011KT 10SM BKN050 08/04 A3041 RMK AO2 RAB06E41 SLP300 P0000 T00830044 $
TAF
KPNS 
8nm S 
111135Z 1112/1212 02016G27KT 6SM -RA SCT015 OVC050 FM111800 01017G24KT P6SM VCSH BKN080 FM120000 02011G19KT P6SM BKN080
KNSE 
8nm NE 
1116/1215 02013G20KT 9999 VCSH BKN050 BKN120 OVC250 QNH3032INS FM112100 02010G18KT 9999 SCT050 BKN120 QNH3037INS FM120500 04010KT 9999 BKN050 BKN120 QNH3035INS FM121000 05012KT 9999 VCSH SCT030 BKN070 OVC120 QNH3036INS T12/1120Z T06/1212Z AMD 1556 FN20071
KNPA 
19nm SW 
1115/1215 01015G22KT 9999 VCSH BKN045 OVC090 QNH3035INS TEMPO 1115/1117 8000 RA FM111800 03018G25KT 9999 SCT060 BKN110 QNH3035INS FM112300 03012G21KT 9999 FEW060 BKN110 QNH3038INS FM120600 04012KT 9999 BKN060 BKN110 QNH3034INS FM121200 04012G20KT 9999 BKN035 BKN080 QNH3036INS T13/1119Z T07/1212Z FN20033
NOTAMs
Click for the latest NOTAMs
NOTAMs are issued by the DoD/FAA and will open in a separate window not controlled by AirNav.

 

 
 

Would you like to see your business listed on this page?

 If your business provides an interesting product or service to pilots, flight crews, aircraft, or users of the Spencer Naval Outlying Field, you should consider listing it here.  To start the listing process, click on the button below
 
Add a business
 

Other Pages about Spencer Naval Outlying Field

Update a link
 
Copyright © AirNav, LLC. All rights reserved. Privacy Policy  Contact